createdAt,value
2019-04-10T00:02:29.242Z,71.2
2019-04-10T00:07:29.489Z,71.1
2019-04-10T00:12:28.023Z,70.9
2019-04-10T00:17:27.903Z,71.0
2019-04-10T00:22:28.837Z,71.1
2019-04-10T00:27:28.828Z,71.2
2019-04-10T00:32:28.330Z,71.1
2019-04-10T00:37:31.618Z,71.2
2019-04-10T00:42:29.869Z,71.2
2019-04-10T00:47:28.752Z,71.1
2019-04-10T00:52:28.618Z,71.2
2019-04-10T00:57:27.947Z,71.3
2019-04-10T01:02:29.338Z,71.3
2019-04-10T01:07:40.077Z,71.3
2019-04-10T01:12:28.663Z,71.3
2019-04-10T01:17:28.954Z,71.3
2019-04-10T01:22:28.566Z,71.3
2019-04-10T01:27:28.239Z,71.2
2019-04-10T01:32:28.405Z,71.4
2019-04-10T01:37:29.412Z,71.4
2019-04-10T01:42:28.976Z,71.4
2019-04-10T01:47:29.266Z,71.4
2019-04-10T01:52:27.539Z,71.3
2019-04-10T01:57:28.827Z,71.4
2019-04-10T02:02:29.829Z,71.4
2019-04-10T02:07:28.310Z,71.4
2019-04-10T02:12:29.127Z,71.5
2019-04-10T02:17:29.000Z,71.7
2019-04-10T02:22:29.082Z,71.7
2019-04-10T02:27:27.874Z,71.7
2019-04-10T02:32:28.867Z,71.7
2019-04-10T02:37:28.470Z,71.7
2019-04-10T02:42:28.191Z,71.6
2019-04-10T02:47:28.809Z,71.7
2019-04-10T02:52:28.825Z,71.7
2019-04-10T02:57:29.322Z,71.8
2019-04-10T03:02:30.961Z,71.6
2019-04-10T03:07:28.843Z,71.6
2019-04-10T03:12:32.141Z,71.7
2019-04-10T03:17:28.556Z,71.6
2019-04-10T03:22:28.760Z,71.4
2019-04-10T03:27:28.812Z,71.4
2019-04-10T03:32:36.210Z,71.6
2019-04-10T03:37:28.514Z,71.6
2019-04-10T03:42:29.052Z,71.6
2019-04-10T03:47:28.745Z,71.5
2019-04-10T03:52:27.919Z,71.5
2019-04-10T03:57:28.804Z,71.6
2019-04-10T04:02:27.942Z,71.5
2019-04-10T04:07:28.327Z,71.5
2019-04-10T04:12:29.225Z,71.5
2019-04-10T04:17:28.688Z,71.4
2019-04-10T04:22:28.889Z,71.4
2019-04-10T04:27:29.175Z,71.3
2019-04-10T04:32:29.714Z,71.4
2019-04-10T04:37:28.515Z,71.2
2019-04-10T04:42:29.134Z,71.2
2019-04-10T04:47:30.942Z,71.2
2019-04-10T04:52:28.278Z,71.1
2019-04-10T04:57:29.160Z,71.0
2019-04-10T05:02:28.657Z,70.8
2019-04-10T05:07:29.599Z,70.8
2019-04-10T05:12:28.758Z,70.9
2019-04-10T05:17:29.149Z,70.8
2019-04-10T05:22:28.351Z,70.7
2019-04-10T05:27:28.074Z,70.7
2019-04-10T05:32:28.653Z,70.6
2019-04-10T05:37:30.014Z,70.7
2019-04-10T05:42:29.405Z,70.8
2019-04-10T05:47:29.089Z,70.6
2019-04-10T05:52:29.287Z,70.6
2019-04-10T05:57:29.207Z,70.6
2019-04-10T06:02:28.542Z,70.5
2019-04-10T06:07:29.842Z,70.6
2019-04-10T06:12:28.894Z,70.4
2019-04-10T06:17:28.441Z,70.8
2019-04-10T06:22:28.903Z,70.6
2019-04-10T06:27:29.055Z,70.6
2019-04-10T06:32:29.970Z,70.6
2019-04-10T06:37:28.721Z,70.6
2019-04-10T06:42:29.949Z,70.6
2019-04-10T06:47:29.089Z,70.8
2019-04-10T06:52:28.769Z,70.5
2019-04-10T06:57:28.300Z,70.5
2019-04-10T07:02:32.958Z,70.7
2019-04-10T07:07:51.746Z,70.6
2019-04-10T07:12:33.587Z,70.4
2019-04-10T07:17:29.612Z,70.4
2019-04-10T07:22:29.349Z,70.3
2019-04-10T07:27:32.289Z,70.4
2019-04-10T07:32:29.784Z,70.1
2019-04-10T07:37:29.024Z,70.1
2019-04-10T07:42:38.313Z,70.2
2019-04-10T07:47:29.634Z,69.9
2019-04-10T07:52:29.509Z,69.9
2019-04-10T07:57:29.260Z,69.9
2019-04-10T08:02:30.044Z,69.8
2019-04-10T08:07:36.339Z,70.1
2019-04-10T08:12:45.826Z,70.0
2019-04-10T08:17:28.674Z,70.1
2019-04-10T08:22:29.068Z,70.1
2019-04-10T08:27:30.247Z,70.2
2019-04-10T08:32:29.721Z,70.0
2019-04-10T08:37:28.743Z,70.0
2019-04-10T08:42:28.237Z,70.0
2019-04-10T08:47:28.568Z,69.5
2019-04-10T08:52:28.776Z,69.5
2019-04-10T08:57:28.127Z,69.8
2019-04-10T09:02:28.687Z,69.7
2019-04-10T09:07:29.054Z,69.8
2019-04-10T09:12:28.152Z,69.8
2019-04-10T09:17:28.563Z,69.9
2019-04-10T09:22:44.465Z,69.9
2019-04-10T09:27:29.627Z,69.9
2019-04-10T09:32:29.062Z,69.6
2019-04-10T09:37:30.220Z,69.7
2019-04-10T09:42:29.151Z,69.7
2019-04-10T09:47:28.694Z,69.4
2019-04-10T09:52:28.686Z,69.4
2019-04-10T09:57:29.199Z,69.4
2019-04-10T10:02:28.772Z,69.0
2019-04-10T10:07:29.404Z,69.0
2019-04-10T10:12:29.362Z,69.1
2019-04-10T10:17:29.360Z,69.4
2019-04-10T10:22:31.964Z,69.4
2019-04-10T10:27:28.585Z,69.7
2019-04-10T10:32:29.311Z,69.7
2019-04-10T10:37:28.918Z,69.9
2019-04-10T10:42:30.119Z,69.8
2019-04-10T10:47:30.616Z,70.0
2019-04-10T10:52:28.460Z,69.4
2019-04-10T10:57:27.920Z,69.4
2019-04-10T11:02:30.064Z,70.0
2019-04-10T11:07:29.243Z,70.0
2019-04-10T11:12:30.168Z,69.8
2019-04-10T11:17:30.149Z,69.8
2019-04-10T11:22:29.358Z,69.9
2019-04-10T11:27:29.387Z,69.8
2019-04-10T11:32:30.494Z,69.5
2019-04-10T11:37:44.713Z,69.8
2019-04-10T11:42:31.063Z,69.8
2019-04-10T11:47:31.372Z,70.0
2019-04-10T11:54:38.210Z,69.7
2019-04-10T11:59:33.817Z,69.8
2019-04-10T12:02:34.571Z,70.3
2019-04-10T12:08:31.823Z,70.3
2019-04-10T12:12:28.436Z,70.3
2019-04-10T12:17:30.088Z,70.3
2019-04-10T12:22:29.951Z,70.2
2019-04-10T12:27:29.373Z,70.3
2019-04-10T12:32:28.999Z,69.9
2019-04-10T12:37:28.815Z,70.2
2019-04-10T12:42:28.989Z,70.8
2019-04-10T12:47:32.136Z,70.6
2019-04-10T12:52:28.362Z,70.6
2019-04-10T12:57:29.014Z,70.3
2019-04-10T13:02:28.765Z,70.2
2019-04-10T13:07:30.107Z,70.0
2019-04-10T13:12:29.653Z,70.0
2019-04-10T13:17:29.304Z,70.2
2019-04-10T13:22:28.910Z,69.9
2019-04-10T13:27:31.000Z,69.9
2019-04-10T13:32:28.239Z,70.0
2019-04-10T13:37:29.723Z,70.0
2019-04-10T13:42:31.386Z,69.9
2019-04-10T13:47:30.449Z,70.0
2019-04-10T13:52:29.282Z,70.4
2019-04-10T13:57:29.081Z,70.5
2019-04-10T14:02:28.453Z,70.5
2019-04-10T14:07:28.964Z,70.6
2019-04-10T14:12:29.516Z,70.9
2019-04-10T14:17:29.855Z,70.9
2019-04-10T14:22:29.838Z,71.1
2019-04-10T14:27:30.585Z,71.0
2019-04-10T14:32:27.576Z,70.9
2019-04-10T14:37:29.884Z,71.1
2019-04-10T14:42:29.214Z,71.7
2019-04-10T14:47:30.024Z,71.7
2019-04-10T14:52:29.849Z,72.2
2019-04-10T14:57:28.971Z,72.2
2019-04-10T15:02:30.406Z,72.4
2019-04-10T15:07:29.393Z,72.4
2019-04-10T15:12:28.507Z,72.5
2019-04-10T15:17:29.311Z,72.3
2019-04-10T15:22:29.052Z,72.6
2019-04-10T15:27:29.684Z,72.6
2019-04-10T15:32:29.381Z,72.7
2019-04-10T15:37:29.370Z,72.6
2019-04-10T15:42:28.591Z,72.8
2019-04-10T15:47:29.483Z,72.9
2019-04-10T15:52:29.509Z,73.0
2019-04-10T15:57:29.343Z,72.9
2019-04-10T16:02:30.511Z,72.4
2019-04-10T16:07:31.223Z,72.8
2019-04-10T16:12:28.498Z,72.8
2019-04-10T16:17:29.684Z,72.8
2019-04-10T16:22:28.940Z,73.0
2019-04-10T16:27:29.098Z,73.0
2019-04-10T16:32:28.864Z,72.2
2019-04-10T16:37:28.972Z,72.4
2019-04-10T16:42:28.970Z,72.4
2019-04-10T16:47:30.226Z,72.4
2019-04-10T16:52:29.563Z,72.2
2019-04-10T16:57:29.429Z,72.1
2019-04-10T17:02:28.880Z,72.0
2019-04-10T17:07:29.104Z,71.8
2019-04-10T17:12:29.970Z,71.8
2019-04-10T17:17:29.457Z,71.5
2019-04-10T17:22:38.018Z,71.6
2019-04-10T17:27:28.370Z,71.5
2019-04-10T17:32:29.646Z,71.5
2019-04-10T17:37:30.058Z,71.6
2019-04-10T17:42:28.762Z,71.5
2019-04-10T17:47:29.548Z,71.7
2019-04-10T17:52:34.771Z,72.0
2019-04-10T17:57:38.838Z,71.9
2019-04-10T18:02:31.067Z,72.2
2019-04-10T18:07:28.470Z,72.3
2019-04-10T18:12:29.773Z,72.2
2019-04-10T18:17:29.515Z,72.1
2019-04-10T18:22:28.930Z,72.3
2019-04-10T18:27:28.827Z,72.4
2019-04-10T18:32:29.607Z,72.5
2019-04-10T18:37:30.755Z,72.4
2019-04-10T18:42:29.063Z,72.5
2019-04-10T18:47:34.922Z,72.5
2019-04-10T18:52:28.010Z,72.7
2019-04-10T18:57:27.974Z,72.7
2019-04-10T19:02:30.758Z,72.7
2019-04-10T19:07:28.475Z,72.7
2019-04-10T19:12:29.013Z,72.8
2019-04-10T19:17:29.106Z,72.8
2019-04-10T19:22:28.956Z,72.8
2019-04-10T19:27:28.858Z,72.6
2019-04-10T19:32:31.626Z,72.5
2019-04-10T19:37:28.804Z,72.6
2019-04-10T19:42:27.508Z,72.5
2019-04-10T19:47:28.823Z,72.4
2019-04-10T19:52:28.944Z,72.5
2019-04-10T19:57:29.509Z,72.5
2019-04-10T20:02:28.899Z,72.5
2019-04-10T20:07:29.477Z,72.6
2019-04-10T20:12:29.143Z,72.7
2019-04-10T20:17:28.751Z,72.0
2019-04-10T20:22:29.336Z,72.3
2019-04-10T20:27:28.157Z,72.4
2019-04-10T20:32:28.758Z,72.3
2019-04-10T20:37:29.432Z,72.1
2019-04-10T20:42:28.626Z,72.2
2019-04-10T20:47:28.801Z,72.1
2019-04-10T20:52:28.743Z,72.2
2019-04-10T20:57:28.127Z,72.2
2019-04-10T21:02:28.964Z,72.2
2019-04-10T21:07:29.749Z,72.0
2019-04-10T21:12:30.561Z,72.0
2019-04-10T21:17:28.162Z,71.7
2019-04-10T21:22:29.093Z,71.9
2019-04-10T21:27:29.961Z,71.8
2019-04-10T21:32:28.630Z,71.6
2019-04-10T21:37:28.844Z,71.5
2019-04-10T21:42:30.045Z,71.9
2019-04-10T21:47:28.158Z,71.9
2019-04-10T21:52:27.692Z,72.0
2019-04-10T21:57:28.294Z,71.9
2019-04-10T22:02:29.823Z,72.1
2019-04-10T22:07:28.284Z,72.0
2019-04-10T22:12:35.421Z,71.8
2019-04-10T22:23:05.345Z,71.5
2019-04-10T22:28:04.825Z,71.5
2019-04-10T22:33:04.054Z,71.6
2019-04-10T22:38:04.911Z,71.6
2019-04-10T22:43:05.824Z,71.5
2019-04-10T22:48:04.671Z,71.4
2019-04-10T22:53:05.134Z,71.2
2019-04-10T22:58:04.974Z,71.1
2019-04-10T23:03:06.165Z,71.1
2019-04-10T23:08:04.621Z,70.6
2019-04-10T23:12:29.699Z,70.6
2019-04-10T23:17:29.060Z,70.6
2019-04-10T23:22:29.354Z,70.4
2019-04-10T23:27:28.775Z,70.4
2019-04-10T23:32:29.510Z,70.3
2019-04-10T23:37:27.508Z,70.3
2019-04-10T23:42:28.718Z,70.1
2019-04-10T23:47:28.895Z,70.2
2019-04-10T23:52:28.005Z,70.2
2019-04-10T23:57:29.817Z,69.8
